sensor_id;sensor_type;location;lat;lon;timestamp;P1;durP1;ratioP1;P2;durP2;ratioP2
8113;SDS011;4099;52.684;9.918;2023-10-19T00:02:39;19.63;;;17.97;;
8113;SDS011;4099;52.684;9.918;2023-10-19T00:07:41;19.37;;;17.77;;
8113;SDS011;4099;52.684;9.918;2023-10-19T00:12:43;19.73;;;17.93;;
8113;SDS011;4099;52.684;9.918;2023-10-19T00:17:54;19.43;;;17.53;;
8113;SDS011;4099;52.684;9.918;2023-10-19T00:22:56;21.63;;;19.70;;
8113;SDS011;4099;52.684;9.918;2023-10-19T00:27:58;22.80;;;20.87;;
8113;SDS011;4099;52.684;9.918;2023-10-19T00:33:05;25.90;;;23.80;;
8113;SDS011;4099;52.684;9.918;2023-10-19T00:38:16;23.30;;;21.47;;
8113;SDS011;4099;52.684;9.918;2023-10-19T00:43:27;21.00;;;19.20;;
8113;SDS011;4099;52.684;9.918;2023-10-19T00:48:34;19.40;;;17.60;;
8113;SDS011;4099;52.684;9.918;2023-10-19T00:53:37;20.37;;;18.37;;
8113;SDS011;4099;52.684;9.918;2023-10-19T00:58:40;20.80;;;17.90;;
8113;SDS011;4099;52.684;9.918;2023-10-19T01:03:43;20.27;;;18.30;;
8113;SDS011;4099;52.684;9.918;2023-10-19T01:08:45;21.63;;;19.53;;
8113;SDS011;4099;52.684;9.918;2023-10-19T01:13:47;21.07;;;19.07;;
8113;SDS011;4099;52.684;9.918;2023-10-19T01:18:53;20.73;;;18.73;;
8113;SDS011;4099;52.684;9.918;2023-10-19T01:23:56;23.50;;;21.23;;
8113;SDS011;4099;52.684;9.918;2023-10-19T01:28:59;22.20;;;19.80;;
8113;SDS011;4099;52.684;9.918;2023-10-19T01:34:04;22.60;;;20.30;;
8113;SDS011;4099;52.684;9.918;2023-10-19T01:39:08;24.13;;;21.67;;
8113;SDS011;4099;52.684;9.918;2023-10-19T01:44:12;24.47;;;22.13;;
8113;SDS011;4099;52.684;9.918;2023-10-19T01:49:15;25.10;;;22.60;;
8113;SDS011;4099;52.684;9.918;2023-10-19T01:54:27;25.90;;;23.30;;
8113;SDS011;4099;52.684;9.918;2023-10-19T01:59:29;25.47;;;22.87;;
8113;SDS011;4099;52.684;9.918;2023-10-19T02:04:32;26.67;;;23.93;;
8113;SDS011;4099;52.684;9.918;2023-10-19T02:09:37;27.53;;;24.40;;
8113;SDS011;4099;52.684;9.918;2023-10-19T02:14:39;27.20;;;24.07;;
8113;SDS011;4099;52.684;9.918;2023-10-19T02:19:41;27.03;;;24.33;;
8113;SDS011;4099;52.684;9.918;2023-10-19T02:24:45;27.83;;;25.03;;
8113;SDS011;4099;52.684;9.918;2023-10-19T02:29:48;28.90;;;25.97;;
8113;SDS011;4099;52.684;9.918;2023-10-19T02:34:50;28.43;;;25.53;;
8113;SDS011;4099;52.684;9.918;2023-10-19T02:39:54;29.70;;;26.47;;
8113;SDS011;4099;52.684;9.918;2023-10-19T02:44:55;29.47;;;26.37;;
8113;SDS011;4099;52.684;9.918;2023-10-19T02:49:59;30.20;;;27.10;;
8113;SDS011;4099;52.684;9.918;2023-10-19T02:55:11;30.33;;;27.10;;
8113;SDS011;4099;52.684;9.918;2023-10-19T03:00:16;31.50;;;28.27;;
8113;SDS011;4099;52.684;9.918;2023-10-19T03:05:20;35.37;;;31.67;;
8113;SDS011;4099;52.684;9.918;2023-10-19T03:10:25;31.07;;;27.83;;
8113;SDS011;4099;52.684;9.918;2023-10-19T03:15:34;31.93;;;28.70;;
8113;SDS011;4099;52.684;9.918;2023-10-19T03:20:44;31.57;;;28.27;;
8113;SDS011;4099;52.684;9.918;2023-10-19T03:25:48;32.77;;;29.37;;
8113;SDS011;4099;52.684;9.918;2023-10-19T03:31:13;31.43;;;28.13;;
8113;SDS011;4099;52.684;9.918;2023-10-19T03:36:18;31.53;;;28.13;;
8113;SDS011;4099;52.684;9.918;2023-10-19T03:41:21;31.90;;;28.47;;
8113;SDS011;4099;52.684;9.918;2023-10-19T03:46:26;32.30;;;28.83;;
8113;SDS011;4099;52.684;9.918;2023-10-19T03:51:30;31.57;;;28.23;;
8113;SDS011;4099;52.684;9.918;2023-10-19T03:56:42;34.07;;;30.37;;
8113;SDS011;4099;52.684;9.918;2023-10-19T04:01:44;31.77;;;28.50;;
8113;SDS011;4099;52.684;9.918;2023-10-19T04:06:46;33.70;;;29.97;;
8113;SDS011;4099;52.684;9.918;2023-10-19T04:11:51;33.97;;;29.63;;
8113;SDS011;4099;52.684;9.918;2023-10-19T04:16:53;35.00;;;29.23;;
8113;SDS011;4099;52.684;9.918;2023-10-19T04:21:56;31.87;;;28.47;;
8113;SDS011;4099;52.684;9.918;2023-10-19T04:26:59;35.20;;;29.47;;
8113;SDS011;4099;52.684;9.918;2023-10-19T04:32:02;32.63;;;29.20;;
8113;SDS011;4099;52.684;9.918;2023-10-19T04:37:07;34.40;;;30.80;;
8113;SDS011;4099;52.684;9.918;2023-10-19T04:42:14;32.70;;;29.27;;
8113;SDS011;4099;52.684;9.918;2023-10-19T04:47:16;33.27;;;29.57;;
8113;SDS011;4099;52.684;9.918;2023-10-19T04:52:18;32.80;;;29.33;;
8113;SDS011;4099;52.684;9.918;2023-10-19T04:57:21;34.77;;;31.30;;
8113;SDS011;4099;52.684;9.918;2023-10-19T05:02:23;33.53;;;30.03;;
8113;SDS011;4099;52.684;9.918;2023-10-19T05:07:25;33.77;;;30.17;;
8113;SDS011;4099;52.684;9.918;2023-10-19T05:12:28;32.13;;;28.73;;
8113;SDS011;4099;52.684;9.918;2023-10-19T05:17:30;36.03;;;30.30;;
8113;SDS011;4099;52.684;9.918;2023-10-19T05:22:32;34.30;;;31.00;;
8113;SDS011;4099;52.684;9.918;2023-10-19T05:27:35;32.73;;;29.37;;
8113;SDS011;4099;52.684;9.918;2023-10-19T05:32:38;32.40;;;29.00;;
8113;SDS011;4099;52.684;9.918;2023-10-19T05:37:40;32.13;;;27.67;;
8113;SDS011;4099;52.684;9.918;2023-10-19T05:42:43;31.87;;;28.60;;
8113;SDS011;4099;52.684;9.918;2023-10-19T05:47:46;31.57;;;28.20;;
8113;SDS011;4099;52.684;9.918;2023-10-19T05:52:48;31.53;;;28.33;;
8113;SDS011;4099;52.684;9.918;2023-10-19T05:57:51;32.13;;;28.87;;
8113;SDS011;4099;52.684;9.918;2023-10-19T06:02:53;32.53;;;29.03;;
8113;SDS011;4099;52.684;9.918;2023-10-19T06:07:54;32.57;;;28.93;;
8113;SDS011;4099;52.684;9.918;2023-10-19T06:12:58;33.87;;;29.67;;
8113;SDS011;4099;52.684;9.918;2023-10-19T06:17:59;34.63;;;31.07;;
8113;SDS011;4099;52.684;9.918;2023-10-19T06:23:01;33.50;;;29.80;;
8113;SDS011;4099;52.684;9.918;2023-10-19T06:28:06;33.97;;;30.47;;
8113;SDS011;4099;52.684;9.918;2023-10-19T06:33:09;35.30;;;31.50;;
8113;SDS011;4099;52.684;9.918;2023-10-19T06:38:11;33.73;;;30.17;;
8113;SDS011;4099;52.684;9.918;2023-10-19T06:43:14;34.63;;;30.87;;
8113;SDS011;4099;52.684;9.918;2023-10-19T06:48:16;35.90;;;32.23;;
8113;SDS011;4099;52.684;9.918;2023-10-19T06:53:18;31.57;;;28.27;;
8113;SDS011;4099;52.684;9.918;2023-10-19T06:58:23;31.67;;;28.53;;
8113;SDS011;4099;52.684;9.918;2023-10-19T07:03:26;30.77;;;27.60;;
8113;SDS011;4099;52.684;9.918;2023-10-19T07:08:29;30.07;;;26.93;;
8113;SDS011;4099;52.684;9.918;2023-10-19T07:13:32;28.83;;;25.97;;
8113;SDS011;4099;52.684;9.918;2023-10-19T07:18:34;34.07;;;30.67;;
8113;SDS011;4099;52.684;9.918;2023-10-19T07:23:37;32.57;;;29.67;;
8113;SDS011;4099;52.684;9.918;2023-10-19T07:28:41;34.10;;;30.97;;
8113;SDS011;4099;52.684;9.918;2023-10-19T07:33:43;28.97;;;26.10;;
8113;SDS011;4099;52.684;9.918;2023-10-19T07:38:47;30.90;;;27.97;;
8113;SDS011;4099;52.684;9.918;2023-10-19T07:43:50;31.43;;;28.43;;
8113;SDS011;4099;52.684;9.918;2023-10-19T07:48:52;30.67;;;27.47;;
8113;SDS011;4099;52.684;9.918;2023-10-19T07:53:53;30.93;;;28.00;;
8113;SDS011;4099;52.684;9.918;2023-10-19T07:58:58;28.43;;;25.63;;
8113;SDS011;4099;52.684;9.918;2023-10-19T08:03:59;29.63;;;26.53;;
8113;SDS011;4099;52.684;9.918;2023-10-19T08:09:01;29.53;;;26.63;;
8113;SDS011;4099;52.684;9.918;2023-10-19T08:14:06;27.90;;;25.13;;
8113;SDS011;4099;52.684;9.918;2023-10-19T08:19:08;26.83;;;24.20;;
8113;SDS011;4099;52.684;9.918;2023-10-19T08:24:12;28.87;;;26.13;;
8113;SDS011;4099;52.684;9.918;2023-10-19T08:29:19;25.27;;;22.77;;
8113;SDS011;4099;52.684;9.918;2023-10-19T08:34:21;24.30;;;22.10;;
8113;SDS011;4099;52.684;9.918;2023-10-19T08:39:25;23.13;;;20.93;;
8113;SDS011;4099;52.684;9.918;2023-10-19T08:44:28;22.90;;;20.77;;
8113;SDS011;4099;52.684;9.918;2023-10-19T08:49:30;23.00;;;20.83;;
8113;SDS011;4099;52.684;9.918;2023-10-19T08:54:32;23.83;;;21.70;;
8113;SDS011;4099;52.684;9.918;2023-10-19T08:59:36;21.60;;;19.67;;
8113;SDS011;4099;52.684;9.918;2023-10-19T09:04:42;20.43;;;18.63;;
8113;SDS011;4099;52.684;9.918;2023-10-19T09:09:45;20.37;;;18.60;;
8113;SDS011;4099;52.684;9.918;2023-10-19T09:14:49;19.43;;;17.80;;
8113;SDS011;4099;52.684;9.918;2023-10-19T09:19:51;20.77;;;19.10;;
8113;SDS011;4099;52.684;9.918;2023-10-19T09:24:53;19.67;;;17.97;;
8113;SDS011;4099;52.684;9.918;2023-10-19T09:29:57;20.10;;;18.40;;
8113;SDS011;4099;52.684;9.918;2023-10-19T09:34:59;21.03;;;19.13;;
8113;SDS011;4099;52.684;9.918;2023-10-19T09:40:03;19.60;;;17.90;;
8113;SDS011;4099;52.684;9.918;2023-10-19T09:45:13;19.60;;;17.87;;
8113;SDS011;4099;52.684;9.918;2023-10-19T09:50:20;20.93;;;19.13;;
8113;SDS011;4099;52.684;9.918;2023-10-19T09:55:24;19.37;;;17.67;;
8113;SDS011;4099;52.684;9.918;2023-10-19T10:00:32;21.10;;;19.40;;
8113;SDS011;4099;52.684;9.918;2023-10-19T10:05:47;22.30;;;20.40;;
8113;SDS011;4099;52.684;9.918;2023-10-19T10:10:49;19.83;;;18.33;;
8113;SDS011;4099;52.684;9.918;2023-10-19T10:15:53;20.73;;;18.93;;
8113;SDS011;4099;52.684;9.918;2023-10-19T10:21:04;19.17;;;17.47;;
8113;SDS011;4099;52.684;9.918;2023-10-19T10:26:09;19.93;;;18.23;;
8113;SDS011;4099;52.684;9.918;2023-10-19T10:31:18;19.07;;;17.57;;
8113;SDS011;4099;52.684;9.918;2023-10-19T10:36:22;18.40;;;16.83;;
8113;SDS011;4099;52.684;9.918;2023-10-19T10:41:26;18.87;;;17.27;;
8113;SDS011;4099;52.684;9.918;2023-10-19T10:46:30;19.13;;;17.63;;
8113;SDS011;4099;52.684;9.918;2023-10-19T10:51:32;19.83;;;17.93;;
8113;SDS011;4099;52.684;9.918;2023-10-19T10:56:39;21.93;;;20.03;;
8113;SDS011;4099;52.684;9.918;2023-10-19T11:01:45;21.13;;;19.43;;
8113;SDS011;4099;52.684;9.918;2023-10-19T11:06:47;20.33;;;18.53;;
8113;SDS011;4099;52.684;9.918;2023-10-19T11:11:50;18.87;;;17.27;;
8113;SDS011;4099;52.684;9.918;2023-10-19T11:16:55;19.90;;;18.23;;
8113;SDS011;4099;52.684;9.918;2023-10-19T11:22:12;19.10;;;17.50;;
8113;SDS011;4099;52.684;9.918;2023-10-19T11:27:21;21.63;;;19.83;;
8113;SDS011;4099;52.684;9.918;2023-10-19T11:32:35;19.57;;;17.83;;
8113;SDS011;4099;52.684;9.918;2023-10-19T11:37:45;22.57;;;20.77;;
8113;SDS011;4099;52.684;9.918;2023-10-19T11:42:47;20.50;;;18.90;;
8113;SDS011;4099;52.684;9.918;2023-10-19T11:47:51;24.03;;;22.03;;
8113;SDS011;4099;52.684;9.918;2023-10-19T11:52:54;22.47;;;20.77;;
8113;SDS011;4099;52.684;9.918;2023-10-19T11:57:56;22.83;;;20.93;;
8113;SDS011;4099;52.684;9.918;2023-10-19T12:03:00;22.83;;;21.10;;
8113;SDS011;4099;52.684;9.918;2023-10-19T12:08:02;23.73;;;21.87;;
8113;SDS011;4099;52.684;9.918;2023-10-19T12:13:04;23.90;;;22.10;;
8113;SDS011;4099;52.684;9.918;2023-10-19T12:18:09;25.03;;;23.10;;
8113;SDS011;4099;52.684;9.918;2023-10-19T12:23:11;23.30;;;21.33;;
8113;SDS011;4099;52.684;9.918;2023-10-19T12:28:13;24.20;;;22.27;;
8113;SDS011;4099;52.684;9.918;2023-10-19T12:33:16;23.70;;;21.80;;
8113;SDS011;4099;52.684;9.918;2023-10-19T12:38:19;24.27;;;22.30;;
8113;SDS011;4099;52.684;9.918;2023-10-19T12:43:21;24.63;;;22.50;;
8113;SDS011;4099;52.684;9.918;2023-10-19T12:48:24;26.87;;;24.83;;
8113;SDS011;4099;52.684;9.918;2023-10-19T12:53:30;28.43;;;25.97;;
8113;SDS011;4099;52.684;9.918;2023-10-19T12:58:33;27.37;;;25.00;;
8113;SDS011;4099;52.684;9.918;2023-10-19T13:03:36;29.47;;;26.77;;
8113;SDS011;4099;52.684;9.918;2023-10-19T13:08:40;29.00;;;26.50;;
8113;SDS011;4099;52.684;9.918;2023-10-19T13:13:42;29.13;;;26.30;;
8113;SDS011;4099;52.684;9.918;2023-10-19T13:18:46;30.73;;;27.93;;
8113;SDS011;4099;52.684;9.918;2023-10-19T13:23:50;29.03;;;26.43;;
8113;SDS011;4099;52.684;9.918;2023-10-19T13:28:52;30.97;;;28.27;;
8113;SDS011;4099;52.684;9.918;2023-10-19T13:33:57;34.80;;;31.40;;
8113;SDS011;4099;52.684;9.918;2023-10-19T13:39:00;32.33;;;29.23;;
8113;SDS011;4099;52.684;9.918;2023-10-19T13:44:01;30.87;;;27.87;;
8113;SDS011;4099;52.684;9.918;2023-10-19T13:49:06;42.97;;;37.90;;
8113;SDS011;4099;52.684;9.918;2023-10-19T13:54:09;31.17;;;28.13;;
8113;SDS011;4099;52.684;9.918;2023-10-19T13:59:11;30.43;;;27.43;;
8113;SDS011;4099;52.684;9.918;2023-10-19T14:04:15;32.70;;;29.60;;
8113;SDS011;4099;52.684;9.918;2023-10-19T14:09:17;33.33;;;30.03;;
8113;SDS011;4099;52.684;9.918;2023-10-19T14:14:20;33.50;;;30.47;;
8113;SDS011;4099;52.684;9.918;2023-10-19T14:19:23;31.10;;;28.20;;
8113;SDS011;4099;52.684;9.918;2023-10-19T14:24:27;32.03;;;28.93;;
8113;SDS011;4099;52.684;9.918;2023-10-19T14:29:29;32.23;;;29.03;;
8113;SDS011;4099;52.684;9.918;2023-10-19T14:34:32;30.87;;;27.97;;
8113;SDS011;4099;52.684;9.918;2023-10-19T14:39:34;30.47;;;27.43;;
8113;SDS011;4099;52.684;9.918;2023-10-19T14:44:36;35.13;;;31.53;;
8113;SDS011;4099;52.684;9.918;2023-10-19T14:49:39;30.57;;;27.57;;
8113;SDS011;4099;52.684;9.918;2023-10-19T14:54:41;31.63;;;28.23;;
8113;SDS011;4099;52.684;9.918;2023-10-19T14:59:43;31.27;;;28.07;;
8113;SDS011;4099;52.684;9.918;2023-10-19T15:04:46;30.23;;;27.10;;
8113;SDS011;4099;52.684;9.918;2023-10-19T15:09:48;30.07;;;26.87;;
8113;SDS011;4099;52.684;9.918;2023-10-19T15:14:50;30.63;;;27.50;;
8113;SDS011;4099;52.684;9.918;2023-10-19T15:19:54;30.00;;;26.93;;
8113;SDS011;4099;52.684;9.918;2023-10-19T15:24:57;32.03;;;28.83;;
8113;SDS011;4099;52.684;9.918;2023-10-19T15:30:00;31.73;;;28.50;;
8113;SDS011;4099;52.684;9.918;2023-10-19T15:35:03;31.30;;;27.37;;
8113;SDS011;4099;52.684;9.918;2023-10-19T15:40:06;32.07;;;28.93;;
8113;SDS011;4099;52.684;9.918;2023-10-19T15:45:13;33.50;;;30.00;;
8113;SDS011;4099;52.684;9.918;2023-10-19T15:50:19;33.23;;;29.80;;
8113;SDS011;4099;52.684;9.918;2023-10-19T15:55:22;33.93;;;30.27;;
8113;SDS011;4099;52.684;9.918;2023-10-19T16:00:24;38.07;;;33.97;;
8113;SDS011;4099;52.684;9.918;2023-10-19T16:05:27;34.77;;;30.90;;
8113;SDS011;4099;52.684;9.918;2023-10-19T16:10:29;35.23;;;30.57;;
8113;SDS011;4099;52.684;9.918;2023-10-19T16:15:31;37.10;;;30.30;;
8113;SDS011;4099;52.684;9.918;2023-10-19T16:20:34;37.00;;;30.33;;
8113;SDS011;4099;52.684;9.918;2023-10-19T16:25:39;37.37;;;30.47;;
8113;SDS011;4099;52.684;9.918;2023-10-19T16:30:41;36.73;;;29.77;;
8113;SDS011;4099;52.684;9.918;2023-10-19T16:35:45;37.10;;;30.73;;
8113;SDS011;4099;52.684;9.918;2023-10-19T16:40:47;43.17;;;31.57;;
8113;SDS011;4099;52.684;9.918;2023-10-19T16:45:49;37.27;;;31.97;;
8113;SDS011;4099;52.684;9.918;2023-10-19T16:50:52;42.07;;;30.63;;
8113;SDS011;4099;52.684;9.918;2023-10-19T16:55:56;37.33;;;31.70;;
8113;SDS011;4099;52.684;9.918;2023-10-19T17:01:04;40.17;;;32.50;;
8113;SDS011;4099;52.684;9.918;2023-10-19T17:06:10;41.53;;;36.20;;
8113;SDS011;4099;52.684;9.918;2023-10-19T17:11:12;42.27;;;34.80;;
8113;SDS011;4099;52.684;9.918;2023-10-19T17:16:14;42.00;;;37.50;;
8113;SDS011;4099;52.684;9.918;2023-10-19T17:21:17;42.23;;;33.57;;
8113;SDS011;4099;52.684;9.918;2023-10-19T17:26:19;44.53;;;35.53;;
8113;SDS011;4099;52.684;9.918;2023-10-19T17:31:21;45.40;;;34.80;;
8113;SDS011;4099;52.684;9.918;2023-10-19T17:36:26;48.27;;;33.83;;
8113;SDS011;4099;52.684;9.918;2023-10-19T17:41:28;46.67;;;35.10;;
8113;SDS011;4099;52.684;9.918;2023-10-19T17:46:30;43.77;;;34.83;;
8113;SDS011;4099;52.684;9.918;2023-10-19T17:51:34;46.13;;;34.53;;
8113;SDS011;4099;52.684;9.918;2023-10-19T17:56:36;45.70;;;36.00;;
8113;SDS011;4099;52.684;9.918;2023-10-19T18:01:37;46.43;;;34.80;;
8113;SDS011;4099;52.684;9.918;2023-10-19T18:06:43;45.53;;;34.50;;
8113;SDS011;4099;52.684;9.918;2023-10-19T18:11:45;43.97;;;34.00;;
8113;SDS011;4099;52.684;9.918;2023-10-19T18:16:48;49.23;;;35.97;;
8113;SDS011;4099;52.684;9.918;2023-10-19T18:21:52;45.23;;;32.03;;
8113;SDS011;4099;52.684;9.918;2023-10-19T18:26:54;48.10;;;35.13;;
8113;SDS011;4099;52.684;9.918;2023-10-19T18:31:56;43.83;;;35.73;;
8113;SDS011;4099;52.684;9.918;2023-10-19T18:36:59;49.70;;;35.77;;
8113;SDS011;4099;52.684;9.918;2023-10-19T18:42:02;47.17;;;33.90;;
8113;SDS011;4099;52.684;9.918;2023-10-19T18:47:09;46.43;;;35.33;;
8113;SDS011;4099;52.684;9.918;2023-10-19T18:52:12;47.60;;;38.83;;
8113;SDS011;4099;52.684;9.918;2023-10-19T18:57:14;44.70;;;34.13;;
8113;SDS011;4099;52.684;9.918;2023-10-19T19:02:16;43.07;;;34.13;;
8113;SDS011;4099;52.684;9.918;2023-10-19T19:07:19;45.27;;;35.20;;
8113;SDS011;4099;52.684;9.918;2023-10-19T19:12:22;50.37;;;36.07;;
8113;SDS011;4099;52.684;9.918;2023-10-19T19:17:25;46.23;;;36.63;;
8113;SDS011;4099;52.684;9.918;2023-10-19T19:22:28;45.70;;;34.47;;
8113;SDS011;4099;52.684;9.918;2023-10-19T19:27:34;43.93;;;34.63;;
8113;SDS011;4099;52.684;9.918;2023-10-19T19:32:35;45.57;;;35.13;;
8113;SDS011;4099;52.684;9.918;2023-10-19T19:37:39;53.10;;;37.53;;
8113;SDS011;4099;52.684;9.918;2023-10-19T19:42:41;48.23;;;36.10;;
8113;SDS011;4099;52.684;9.918;2023-10-19T19:47:43;50.23;;;36.87;;
8113;SDS011;4099;52.684;9.918;2023-10-19T19:52:47;53.67;;;37.77;;
8113;SDS011;4099;52.684;9.918;2023-10-19T19:57:50;48.93;;;34.50;;
8113;SDS011;4099;52.684;9.918;2023-10-19T20:02:51;60.33;;;40.37;;
8113;SDS011;4099;52.684;9.918;2023-10-19T20:07:55;53.90;;;37.37;;
8113;SDS011;4099;52.684;9.918;2023-10-19T20:12:57;54.03;;;38.67;;
8113;SDS011;4099;52.684;9.918;2023-10-19T20:17:58;47.57;;;36.60;;
8113;SDS011;4099;52.684;9.918;2023-10-19T20:23:02;52.73;;;35.57;;
8113;SDS011;4099;52.684;9.918;2023-10-19T20:28:04;51.27;;;36.43;;
8113;SDS011;4099;52.684;9.918;2023-10-19T20:33:06;55.03;;;40.50;;
8113;SDS011;4099;52.684;9.918;2023-10-19T20:38:09;52.80;;;43.73;;
8113;SDS011;4099;52.684;9.918;2023-10-19T20:43:12;57.07;;;38.20;;
8113;SDS011;4099;52.684;9.918;2023-10-19T20:48:17;52.30;;;37.60;;
8113;SDS011;4099;52.684;9.918;2023-10-19T20:53:20;54.57;;;39.90;;
8113;SDS011;4099;52.684;9.918;2023-10-19T20:58:22;48.43;;;35.63;;
8113;SDS011;4099;52.684;9.918;2023-10-19T21:03:25;48.03;;;35.80;;
8113;SDS011;4099;52.684;9.918;2023-10-19T21:08:29;56.17;;;37.93;;
8113;SDS011;4099;52.684;9.918;2023-10-19T21:13:30;50.40;;;38.23;;
8113;SDS011;4099;52.684;9.918;2023-10-19T21:18:32;53.80;;;41.93;;
8113;SDS011;4099;52.684;9.918;2023-10-19T21:23:35;47.27;;;37.00;;
8113;SDS011;4099;52.684;9.918;2023-10-19T21:28:37;50.13;;;36.13;;
8113;SDS011;4099;52.684;9.918;2023-10-19T21:33:40;47.63;;;35.43;;
8113;SDS011;4099;52.684;9.918;2023-10-19T21:38:44;46.27;;;37.50;;
8113;SDS011;4099;52.684;9.918;2023-10-19T21:43:46;42.13;;;35.57;;
8113;SDS011;4099;52.684;9.918;2023-10-19T21:48:47;48.20;;;43.40;;
8113;SDS011;4099;52.684;9.918;2023-10-19T21:53:50;42.53;;;34.77;;
8113;SDS011;4099;52.684;9.918;2023-10-19T21:58:54;42.40;;;33.20;;
8113;SDS011;4099;52.684;9.918;2023-10-19T22:03:56;40.17;;;33.53;;
8113;SDS011;4099;52.684;9.918;2023-10-19T22:09:00;40.40;;;33.93;;
8113;SDS011;4099;52.684;9.918;2023-10-19T22:14:02;40.27;;;32.80;;
8113;SDS011;4099;52.684;9.918;2023-10-19T22:19:04;41.93;;;34.73;;
8113;SDS011;4099;52.684;9.918;2023-10-19T22:24:10;39.37;;;32.73;;
8113;SDS011;4099;52.684;9.918;2023-10-19T22:29:11;39.10;;;33.90;;
8113;SDS011;4099;52.684;9.918;2023-10-19T22:34:13;39.53;;;32.60;;
8113;SDS011;4099;52.684;9.918;2023-10-19T22:39:17;42.63;;;32.60;;
8113;SDS011;4099;52.684;9.918;2023-10-19T22:44:19;40.50;;;35.97;;
8113;SDS011;4099;52.684;9.918;2023-10-19T22:49:21;42.37;;;33.83;;
8113;SDS011;4099;52.684;9.918;2023-10-19T22:54:25;41.63;;;33.33;;
8113;SDS011;4099;52.684;9.918;2023-10-19T22:59:27;42.43;;;33.37;;
8113;SDS011;4099;52.684;9.918;2023-10-19T23:04:28;39.50;;;32.10;;
8113;SDS011;4099;52.684;9.918;2023-10-19T23:09:33;40.17;;;33.40;;
8113;SDS011;4099;52.684;9.918;2023-10-19T23:14:36;42.73;;;33.80;;
8113;SDS011;4099;52.684;9.918;2023-10-19T23:19:45;39.50;;;31.30;;
8113;SDS011;4099;52.684;9.918;2023-10-19T23:24:53;41.10;;;35.30;;
8113;SDS011;4099;52.684;9.918;2023-10-19T23:29:58;41.20;;;32.33;;
8113;SDS011;4099;52.684;9.918;2023-10-19T23:35:00;39.23;;;32.20;;
8113;SDS011;4099;52.684;9.918;2023-10-19T23:40:03;40.30;;;34.10;;
8113;SDS011;4099;52.684;9.918;2023-10-19T23:45:09;37.77;;;30.00;;
8113;SDS011;4099;52.684;9.918;2023-10-19T23:50:13;35.17;;;30.70;;
8113;SDS011;4099;52.684;9.918;2023-10-19T23:55:17;35.20;;;28.83;;
